MSC Brianna — 3FVZ7 — position and weather

sailwx.info

Track history (hours):
 
Tides and Currents Weather Stations Pressure Air Temp Water Temp Dewpoint Dewpoint Depression Visibility Wind Speed Wind Dir Waves Ship Positions

MSC Brianna

Last reported at 2017-Sep-24 06:30 UTC. Time now 2017-Sep-24 06:53 UTC.
Position N 37°24' W 009°44'.

Length 294 m; draft 11.3 m.

Type: Ship (hazmat cat A). MMSI: 353612000.

Date/timePositionNaut miles runAvg speedWind from/ knotsBaromVisibWave heightAir tempDewpointWater temp
2017-Sep-24 06:30N 37°24' W 009°44'917.3
2017-Sep-24 06:00N 37°32' W 009°46'917.8
2017-Sep-24 05:30N 37°41' W 009°48'917.4
2017-Sep-24 05:00N 37°49' W 009°50'917.5
2017-Sep-24 04:30N 37°58' W 009°53'917.2
2017-Sep-24 04:00N 38°06' W 009°55'817.0
2017-Sep-24 03:30N 38°15' W 009°58'918.6
2017-Sep-24 03:00N 38°24' W 010°01'1019.1
2017-Sep-24 02:30N 38°33' W 010°03'918.5
2017-Sep-24 02:00N 38°42' W 010°05'917.9
2017-Sep-24 01:30N 38°51' W 010°05'917.5
2017-Sep-24 01:00N 38°60' W 010°06'917.6
2017-Sep-24 00:30N 39°09' W 010°06'917.4
2017-Sep-24 00:00N 39°17' W 010°06'917.5
2017-Sep-23 23:30N 39°26' W 010°06'917.5
2017-Sep-23 23:00N 39°35' W 010°06'917.9
2017-Sep-23 22:30N 39°44' W 010°06'917.4
2017-Sep-23 22:00N 39°52' W 010°06'917.5
2017-Sep-23 21:30N 40°01' W 010°06'917.7
2017-Sep-23 21:00N 40°10' W 010°06'918.0
2017-Sep-23 20:30N 40°19' W 010°05'1117.3
2017-Sep-23 19:53N 40°30' W 010°05'65215.6
2017-Sep-22 02:00N 50°01' W 002°38'8615.0
2017-Sep-21 20:17N 50°24' W 000°28'413.5
2017-Sep-21 20:00N 50°25' W 000°23'714.2
2017-Sep-21 19:30N 50°26' W 000°12'815.2
2017-Sep-21 19:01N 50°28' W 000°01'816.0
2017-Sep-21 18:31N 50°31' E 000°11'816.6
2017-Sep-21 18:01N 50°33' E 000°24'816.6
2017-Sep-21 17:30N 50°35' E 000°36'816.5
2017-Sep-21 17:01N 50°40' E 000°47'816.5
2017-Sep-21 16:31N 50°45' E 000°57'815.9
2017-Sep-21 16:01N 50°50' E 001°07'815.2
2017-Sep-21 15:30N 50°55' E 001°17'714.1
2017-Sep-21 15:00N 50°59' E 001°25'713.1
2017-Sep-21 14:30N 51°04' E 001°32'612.2
2017-Sep-21 14:00N 51°09' E 001°39'612.3
2017-Sep-21 13:30N 51°13' E 001°46'612.6
2017-Sep-21 13:00N 51°18' E 001°52'713.1
2017-Sep-21 12:30N 51°24' E 001°57'611.7
2017-Sep-21 12:00N 51°24' E 002°07'612.7
2017-Sep-21 11:31N 51°20' E 002°15'713.0
2017-Sep-21 11:00N 51°22' E 002°26'713.8
2017-Sep-21 10:29N 51°22' E 002°37'612.2
2017-Sep-21 09:59N 51°22' E 002°47'714.5
2017-Sep-21 09:30N 51°23' E 002°58'713.4
2017-Sep-21 09:01N 51°24' E 003°08'714.2
2017-Sep-21 08:30N 51°24' E 003°19'714.2
2017-Sep-21 08:00N 51°25' E 003°31'5 9.9
2017-Sep-21 07:30N 51°26' E 003°38'713.1
2017-Sep-21 07:00N 51°22' E 003°46'612.9
2017-Sep-21 06:30N 51°23' E 003°56'4 8.2
2017-Sep-21 06:00N 51°24' E 004°02'510.6
2017-Sep-21 05:31N 51°24' E 004°10'5 9.2
2017-Sep-21 05:01N 51°21' E 004°16'0 1.0
2017-Sep-21 04:30N 51°21' E 004°17'0 0.0
2017-Sep-21 04:01N 51°21' E 004°17'0 0.0
2017-Sep-21 03:31N 51°21' E 004°17'1 2.1
2017-Sep-21 03:00N 51°20' E 004°18'1 2.3
2017-Sep-21 02:30N 51°20' E 004°20'0 0.4
2017-Sep-21 01:54N 51°20' E 004°20'0 0.0
2017-Sep-21 01:30N 51°20' E 004°20'0 0.0
2017-Sep-21 00:57N 51°20' E 004°20'0 0.0
2017-Sep-21 00:30N 51°20' E 004°20'0 0.0
2017-Sep-21 00:00N 51°20' E 004°20'0 0.0
2017-Sep-20 23:30N 51°20' E 004°20'0 0.0
2017-Sep-20 23:00N 51°20' E 004°20'0 0.0
2017-Sep-20 22:27N 51°20' E 004°20'0 0.0
2017-Sep-20 21:57N 51°20' E 004°20'0 0.0
2017-Sep-20 21:30N 51°20' E 004°20'0 0.0
2017-Sep-20 21:00N 51°20' E 004°20'0 0.0
2017-Sep-20 20:30N 51°20' E 004°20'0 0.0
2017-Sep-20 20:00N 51°20' E 004°20'0 0.0
2017-Sep-20 19:30N 51°20' E 004°20'0 0.0
2017-Sep-20 19:00N 51°20' E 004°20'0 0.0
2017-Sep-20 18:27N 51°20' E 004°20'0 0.0
2017-Sep-20 18:00N 51°20' E 004°20'0 0.0
2017-Sep-20 17:27N 51°20' E 004°20'0 0.0
2017-Sep-20 17:00N 51°20' E 004°20'0 0.0
2017-Sep-20 16:30N 51°20' E 004°20'0 0.0
2017-Sep-20 15:39N 51°20' E 004°20'0 0.0
2017-Sep-20 15:30N 51°20' E 004°20'0 0.0
2017-Sep-20 15:00N 51°20' E 004°20'0 0.0
2017-Sep-20 14:00N 51°20' E 004°20'0 0.0
2017-Sep-20 13:30N 51°20' E 004°20'0 0.0
2017-Sep-20 12:57N 51°20' E 004°20'0 0.0
2017-Sep-20 12:27N 51°20' E 004°20'0 0.0
2017-Sep-20 11:54N 51°20' E 004°20'0 0.0
2017-Sep-20 11:30N 51°20' E 004°20'0 0.0
2017-Sep-20 11:00N 51°20' E 004°20'0 0.0
2017-Sep-20 10:27N 51°20' E 004°20'0 0.0
2017-Sep-20 10:00N 51°20' E 004°20'0 0.0
2017-Sep-20 09:30N 51°20' E 004°20'0 0.0
2017-Sep-20 08:48N 51°20' E 004°20'0 0.0
2017-Sep-20 08:30N 51°20' E 004°20'0 0.0
2017-Sep-20 08:00N 51°20' E 004°20'0 0.0
2017-Sep-20 07:30N 51°20' E 004°20'0 0.0
2017-Sep-20 07:00N 51°20' E 004°20'0 0.0
2017-Sep-20 06:30N 51°20' E 004°20'0 0.0
2017-Sep-20 06:00N 51°20' E 004°20'0 0.0
2017-Sep-20 05:30N 51°20' E 004°20'0 0.0
2017-Sep-20 05:00N 51°20' E 004°20'0 0.0
2017-Sep-20 04:27N 51°20' E 004°20'0 0.0
2017-Sep-20 04:00N 51°20' E 004°20'0 0.0
2017-Sep-20 03:30N 51°20' E 004°20'0 0.0
2017-Sep-20 03:00N 51°20' E 004°20'0 0.0
2017-Sep-20 02:24N 51°20' E 004°20'0 0.0
2017-Sep-20 02:00N 51°20' E 004°20'0 0.0
2017-Sep-20 01:27N 51°20' E 004°20'0 0.0
2017-Sep-20 00:57N 51°20' E 004°20'0 0.0
2017-Sep-20 00:30N 51°20' E 004°20'0 0.0
2017-Sep-20 00:00N 51°20' E 004°20'0 0.0
2017-Sep-19 23:30N 51°20' E 004°20'0 0.0
2017-Sep-19 23:00N 51°20' E 004°20'0 0.0
2017-Sep-19 22:30N 51°20' E 004°20'0 0.0
2017-Sep-19 21:57N 51°20' E 004°20'0 0.0
2017-Sep-19 21:30N 51°20' E 004°20'0 0.0
2017-Sep-19 21:00N 51°20' E 004°20'0 0.0
2017-Sep-19 20:30N 51°20' E 004°20'0 0.0
2017-Sep-19 20:00N 51°20' E 004°20'0 0.0
2017-Sep-19 19:27N 51°20' E 004°20'0 0.0
2017-Sep-19 19:00N 51°20' E 004°20'0 0.0
2017-Sep-19 18:30N 51°20' E 004°20'0 0.0
2017-Sep-19 18:00N 51°20' E 004°20'0 0.0
2017-Sep-19 17:24N 51°20' E 004°20'0 0.0
2017-Sep-19 17:00N 51°20' E 004°20'0 0.0
2017-Sep-19 16:30N 51°20' E 004°20'0 0.0
2017-Sep-19 16:00N 51°20' E 004°20'0 0.0
2017-Sep-19 15:30N 51°20' E 004°20'0 0.0
2017-Sep-19 15:00N 51°20' E 004°20'0 0.0
2017-Sep-19 14:30N 51°20' E 004°20'0 0.0
2017-Sep-19 14:00N 51°20' E 004°20'0 0.0
2017-Sep-19 13:30N 51°20' E 004°20'0 0.0
2017-Sep-19 13:00N 51°20' E 004°20'0 0.0
2017-Sep-19 12:27N 51°20' E 004°20'0 0.0
2017-Sep-19 12:00N 51°20' E 004°20'0 0.0
2017-Sep-19 11:30N 51°20' E 004°20'0 0.0
2017-Sep-19 11:00N 51°20' E 004°20'0 0.0
2017-Sep-19 10:30N 51°20' E 004°20'0 0.0
2017-Sep-19 10:00N 51°20' E 004°20'0 0.0
2017-Sep-19 09:24N 51°20' E 004°20'0 0.0
2017-Sep-19 08:57N 51°20' E 004°20'0 0.0
2017-Sep-19 08:30N 51°20' E 004°20'0 0.0
2017-Sep-19 07:54N 51°20' E 004°20'0 0.0
2017-Sep-19 07:30N 51°20' E 004°20'0 0.0
2017-Sep-19 07:00N 51°20' E 004°20'0 0.0
2017-Sep-19 06:24N 51°20' E 004°20'0 0.0
2017-Sep-19 06:00N 51°20' E 004°20'0 0.0
2017-Sep-19 05:18N 51°20' E 004°20'0 0.0
2017-Sep-19 05:00N 51°20' E 004°20'0 0.0
2017-Sep-19 04:27N 51°20' E 004°20'0 0.0
2017-Sep-19 03:57N 51°20' E 004°20'0 0.0
2017-Sep-19 03:30N 51°20' E 004°20'0 0.0
2017-Sep-19 03:00N 51°20' E 004°20'0 0.0
2017-Sep-19 02:30N 51°20' E 004°20'0 0.0
2017-Sep-19 01:57N 51°20' E 004°20'0 0.0
2017-Sep-19 01:30N 51°20' E 004°20'0 0.0
2017-Sep-19 01:00N 51°20' E 004°20'0 0.0
2017-Sep-19 00:30N 51°20' E 004°20'0 0.0
2017-Sep-19 00:00N 51°20' E 004°20'0 0.0
2017-Sep-18 23:30N 51°20' E 004°20'0 0.0
2017-Sep-18 22:57N 51°20' E 004°20'0 0.0
2017-Sep-18 22:30N 51°20' E 004°20'0 0.0
2017-Sep-18 22:00N 51°20' E 004°20'0 0.0
2017-Sep-18 21:30N 51°20' E 004°20'0 0.0
2017-Sep-18 21:00N 51°20' E 004°20'0 0.0
2017-Sep-18 20:30N 51°20' E 004°20'0 0.0
2017-Sep-18 20:00N 51°20' E 004°20'0 0.0
2017-Sep-18 19:30N 51°20' E 004°20'0 0.0
2017-Sep-18 19:00N 51°20' E 004°20'0 0.0
2017-Sep-18 18:30N 51°20' E 004°20'0 0.0
2017-Sep-18 18:00N 51°20' E 004°20'0 0.0
2017-Sep-18 17:30N 51°20' E 004°20'0 0.0
2017-Sep-18 17:00N 51°20' E 004°20'0 0.0
2017-Sep-18 16:30N 51°20' E 004°20'0 0.0
2017-Sep-18 16:00N 51°20' E 004°20'0 0.0
2017-Sep-18 15:30N 51°20' E 004°20'0 0.0
2017-Sep-18 15:00N 51°20' E 004°20'0 0.0
2017-Sep-18 14:30N 51°20' E 004°20'0 0.0
2017-Sep-18 14:00N 51°20' E 004°20'0 0.0
2017-Sep-18 13:30N 51°20' E 004°20'0 0.0
2017-Sep-18 13:00N 51°20' E 004°20'0 0.0
2017-Sep-18 12:27N 51°20' E 004°20'0 0.0
2017-Sep-18 12:00N 51°20' E 004°20'0 0.0
2017-Sep-18 11:30N 51°20' E 004°20'2 3.4
2017-Sep-18 11:01N 51°20' E 004°18'1 1.3
2017-Sep-18 10:30N 51°21' E 004°17'0 0.0
2017-Sep-18 10:00N 51°21' E 004°17'0 0.0
2017-Sep-18 09:30N 51°21' E 004°17'1 1.3
2017-Sep-18 09:00N 51°20' E 004°16'3 5.4
2017-Sep-18 08:30N 51°18' E 004°16'1 1.2
2017-Sep-18 07:55N 51°17' E 004°15'0 0.0
2017-Sep-18 07:25N 51°17' E 004°15'0 0.0
2017-Sep-18 06:55N 51°17' E 004°15'0 0.0
2017-Sep-18 06:25N 51°17' E 004°15'0 0.0
2017-Sep-18 05:55N 51°17' E 004°15'0 0.1
2017-Sep-18 05:25N 51°17' E 004°15'0 0.0
2017-Sep-18 04:55N 51°17' E 004°15'0 0.0
2017-Sep-18 04:25N 51°17' E 004°15'0 0.0
2017-Sep-18 03:55N 51°17' E 004°15'0 0.0
2017-Sep-18 03:25N 51°17' E 004°15'0 0.0
2017-Sep-18 02:55N 51°17' E 004°15'0 0.0
2017-Sep-18 02:25N 51°17' E 004°15'0 0.0
2017-Sep-18 01:55N 51°17' E 004°15'0 0.0
2017-Sep-18 01:25N 51°17' E 004°15'0 0.0
2017-Sep-18 00:55N 51°17' E 004°15'0 0.0
2017-Sep-18 00:25N 51°17' E 004°15'0 0.0
2017-Sep-17 23:55N 51°17' E 004°15'0 0.0
2017-Sep-17 23:25N 51°17' E 004°15'0 0.0
2017-Sep-17 22:55N 51°17' E 004°15'0 0.0
2017-Sep-17 22:25N 51°17' E 004°15'0 0.0
2017-Sep-17 21:55N 51°17' E 004°15'0 0.0
2017-Sep-17 21:25N 51°17' E 004°15'0 0.0
2017-Sep-17 20:55N 51°17' E 004°15'0 0.0
2017-Sep-17 20:25N 51°17' E 004°15'0 0.0
2017-Sep-17 19:55N 51°17' E 004°15'0 0.0
2017-Sep-17 19:25N 51°17' E 004°15'0 0.0
2017-Sep-17 18:55N 51°17' E 004°15'0 0.0
2017-Sep-17 18:19N 51°17' E 004°15'0 0.0
2017-Sep-17 17:55N 51°17' E 004°15'0 0.1
2017-Sep-17 17:25N 51°17' E 004°15'0 0.0
2017-Sep-17 16:55N 51°17' E 004°15'0 0.0
2017-Sep-17 16:25N 51°17' E 004°15'0 0.0
2017-Sep-17 15:55N 51°17' E 004°15'0 0.0
2017-Sep-17 15:25N 51°17' E 004°15'0 0.0
2017-Sep-17 14:49N 51°17' E 004°15'0 0.0
2017-Sep-17 14:25N 51°17' E 004°15'0 0.0
2017-Sep-17 13:55N 51°17' E 004°15'0 0.0
2017-Sep-17 13:25N 51°17' E 004°15'0 0.0
2017-Sep-17 12:55N 51°17' E 004°15'0 0.0
2017-Sep-17 12:25N 51°17' E 004°15'0 0.1
2017-Sep-17 12:00N 51°17' E 004°15'1 2.4
2017-Sep-17 11:30N 51°18' E 004°16'2 4.6
2017-Sep-17 11:00N 51°20' E 004°16'5 9.5
2017-Sep-17 10:30N 51°23' E 004°10'510.5
2017-Sep-17 10:01N 51°24' E 004°02'3 6.8
2017-Sep-17 09:30N 51°23' E 003°57'612.7
2017-Sep-17 09:01N 51°21' E 003°47'612.1
2017-Sep-17 08:30N 51°26' E 003°41'510.5
2017-Sep-17 08:01N 51°25' E 003°33'713.1
2017-Sep-17 07:31N 51°24' E 003°22'612.3
2017-Sep-17 07:01N 51°24' E 003°12'611.9
2017-Sep-17 06:31N 51°24' E 003°03'4 8.8
2017-Sep-17 06:01N 51°29' E 003°01'713.2
2017-Sep-17 05:31N 51°34' E 003°09'612.6
2017-Sep-17 05:00N 51°40' E 003°12'510.6
2017-Sep-17 04:30N 51°45' E 003°14'3 5.9
2017-Sep-17 04:00N 51°48' E 003°16'3 5.2
2017-Sep-17 03:30N 51°50' E 003°17'3 5.7
2017-Sep-17 02:57N 51°53' E 003°17'3 5.0
2017-Sep-17 02:20N 51°56' E 003°18'2 4.7
2017-Sep-17 01:59N 51°58' E 003°19'3 6.0
2017-Sep-17 01:29N 52°01' E 003°20'12 7.3
2017-Sep-16 23:54N 52°03' E 003°38'411.2
2017-Sep-16 23:30N 52°03' E 003°45'5 9.9
2017-Sep-16 23:01N 52°03' E 003°53'4 7.2
2017-Sep-16 22:31N 52°01' E 003°59'510.2
2017-Sep-16 22:01N 51°58' E 004°05'1 2.2
2017-Sep-16 21:31N 51°58' E 004°04'0 0.0
2017-Sep-16 20:59N 51°58' E 004°04'0 0.0
2017-Sep-16 20:29N 51°58' E 004°04'0 0.0
2017-Sep-16 19:56N 51°58' E 004°04'0 0.0
2017-Sep-16 19:29N 51°58' E 004°04'0 0.0
2017-Sep-16 18:59N 51°58' E 004°04'0 0.0
2017-Sep-16 18:29N 51°58' E 004°04'0 0.0
2017-Sep-16 17:59N 51°58' E 004°04'0 0.0
2017-Sep-16 17:29N 51°58' E 004°04'0 0.0
2017-Sep-16 16:59N 51°58' E 004°04'0 0.0
2017-Sep-16 16:29N 51°58' E 004°04'0 0.0
2017-Sep-16 15:59N 51°58' E 004°04'0 0.0
2017-Sep-16 15:29N 51°58' E 004°04'0 0.0
2017-Sep-16 14:59N 51°58' E 004°04'0 0.0
2017-Sep-16 14:29N 51°58' E 004°04'0 0.0
2017-Sep-16 13:59N 51°58' E 004°04'0 0.0
2017-Sep-16 13:29N 51°58' E 004°04'0 0.0
2017-Sep-16 12:59N 51°58' E 004°04'0 0.0
2017-Sep-16 12:29N 51°58' E 004°04'0 0.0
2017-Sep-16 11:59N 51°58' E 004°04'0 0.0
2017-Sep-16 11:29N 51°58' E 004°04'0 0.0
2017-Sep-16 10:59N 51°58' E 004°04'0 0.0
2017-Sep-16 10:29N 51°58' E 004°04'0 0.0
2017-Sep-16 09:59N 51°58' E 004°04'0 0.0
2017-Sep-16 09:29N 51°58' E 004°04'0 0.0
2017-Sep-16 08:59N 51°58' E 004°04'0 0.0
2017-Sep-16 08:29N 51°58' E 004°04'0 0.0
2017-Sep-16 08:00N 51°58' E 004°04'1 2.4
2017-Sep-16 07:30N 51°59' E 004°05'3 5.4
2017-Sep-16 07:00N 52°00' E 004°01'5 9.9
2017-Sep-16 06:30N 51°60' E 003°53'4 8.2
2017-Sep-16 06:00N 51°59' E 003°47'3 5.5
2017-Sep-16 05:30N 51°58' E 003°43'3 6.9
2017-Sep-16 05:00N 51°57' E 003°37'3 6.7
2017-Sep-16 04:30N 51°56' E 003°32'3 6.9
2017-Sep-16 04:00N 51°55' E 003°27'3 6.7
2017-Sep-16 03:30N 51°54' E 003°22'1110.5
2017-Sep-16 02:26N 51°51' E 003°04'1411.7
2017-Sep-16 01:12N 51°48' E 002°42'311.9
2017-Sep-16 00:58N 51°49' E 002°37'611.9
2017-Sep-16 00:28N 51°51' E 002°28'812.1
2017-Sep-15 23:50N 51°52' E 002°16'412.4
2017-Sep-15 23:30N 51°53' E 002°09'612.7
2017-Sep-15 23:00N 51°50' E 001°60'612.3
2017-Sep-15 22:30N 51°48' E 001°51'612.5
2017-Sep-15 22:00N 51°51' E 001°41'4 7.9
2017-Sep-15 21:30N 51°50' E 001°35'611.6
2017-Sep-15 21:00N 51°45' E 001°31'612.5
2017-Sep-15 20:30N 51°40' E 001°25'612.2
2017-Sep-15 20:00N 51°36' E 001°18'611.2
2017-Sep-15 19:30N 51°33' E 001°10'510.8
2017-Sep-15 19:00N 51°30' E 001°03'510.0
2017-Sep-15 18:29N 51°29' E 000°55'  
Track history (hours):
 
Tides and Currents Weather Stations Pressure Air Temp Water Temp Dewpoint Dewpoint Depression Visibility Wind Speed Wind Dir Waves Ship Positions

MSC Brianna

Last reported at 2017-Sep-24 06:30 UTC. Time now 2017-Sep-24 06:53 UTC.
Position N 37°24' W 009°44'.

Length 294 m; draft 11.3 m.

Type: Ship (hazmat cat A). MMSI: 353612000.

Date/timePositionNaut miles runAvg speedWind from/ knotsBaromVisibWave heightAir tempDewpointWater temp
2017-Sep-24 06:30N 37°24' W 009°44'917.3
2017-Sep-24 06:00N 37°32' W 009°46'917.8
2017-Sep-24 05:30N 37°41' W 009°48'917.4
2017-Sep-24 05:00N 37°49' W 009°50'917.5
2017-Sep-24 04:30N 37°58' W 009°53'917.2
2017-Sep-24 04:00N 38°06' W 009°55'817.0
2017-Sep-24 03:30N 38°15' W 009°58'918.6
2017-Sep-24 03:00N 38°24' W 010°01'1019.1
2017-Sep-24 02:30N 38°33' W 010°03'918.5
2017-Sep-24 02:00N 38°42' W 010°05'917.9
2017-Sep-24 01:30N 38°51' W 010°05'917.5
2017-Sep-24 01:00N 38°60' W 010°06'917.6
2017-Sep-24 00:30N 39°09' W 010°06'917.4
2017-Sep-24 00:00N 39°17' W 010°06'917.5
2017-Sep-23 23:30N 39°26' W 010°06'917.5
2017-Sep-23 23:00N 39°35' W 010°06'917.9
2017-Sep-23 22:30N 39°44' W 010°06'917.4
2017-Sep-23 22:00N 39°52' W 010°06'917.5
2017-Sep-23 21:30N 40°01' W 010°06'917.7
2017-Sep-23 21:00N 40°10' W 010°06'918.0
2017-Sep-23 20:30N 40°19' W 010°05'1117.3
2017-Sep-23 19:53N 40°30' W 010°05'65215.6
2017-Sep-22 02:00N 50°01' W 002°38'8615.0
2017-Sep-21 20:17N 50°24' W 000°28'413.5
2017-Sep-21 20:00N 50°25' W 000°23'714.2
2017-Sep-21 19:30N 50°26' W 000°12'815.2
2017-Sep-21 19:01N 50°28' W 000°01'816.0
2017-Sep-21 18:31N 50°31' E 000°11'816.6
2017-Sep-21 18:01N 50°33' E 000°24'816.6
2017-Sep-21 17:30N 50°35' E 000°36'816.5
2017-Sep-21 17:01N 50°40' E 000°47'816.5
2017-Sep-21 16:31N 50°45' E 000°57'815.9
2017-Sep-21 16:01N 50°50' E 001°07'815.2
2017-Sep-21 15:30N 50°55' E 001°17'714.1
2017-Sep-21 15:00N 50°59' E 001°25'713.1
2017-Sep-21 14:30N 51°04' E 001°32'612.2
2017-Sep-21 14:00N 51°09' E 001°39'612.3
2017-Sep-21 13:30N 51°13' E 001°46'612.6
2017-Sep-21 13:00N 51°18' E 001°52'713.1
2017-Sep-21 12:30N 51°24' E 001°57'611.7
2017-Sep-21 12:00N 51°24' E 002°07'612.7
2017-Sep-21 11:31N 51°20' E 002°15'713.0
2017-Sep-21 11:00N 51°22' E 002°26'713.8
2017-Sep-21 10:29N 51°22' E 002°37'612.2
2017-Sep-21 09:59N 51°22' E 002°47'714.5
2017-Sep-21 09:30N 51°23' E 002°58'713.4
2017-Sep-21 09:01N 51°24' E 003°08'714.2
2017-Sep-21 08:30N 51°24' E 003°19'714.2
2017-Sep-21 08:00N 51°25' E 003°31'5 9.9
2017-Sep-21 07:30N 51°26' E 003°38'713.1
2017-Sep-21 07:00N 51°22' E 003°46'612.9
2017-Sep-21 06:30N 51°23' E 003°56'4 8.2
2017-Sep-21 06:00N 51°24' E 004°02'510.6
2017-Sep-21 05:31N 51°24' E 004°10'5 9.2
2017-Sep-21 05:01N 51°21' E 004°16'0 1.0
2017-Sep-21 04:30N 51°21' E 004°17'0 0.0
2017-Sep-21 04:01N 51°21' E 004°17'0 0.0
2017-Sep-21 03:31N 51°21' E 004°17'1 2.1
2017-Sep-21 03:00N 51°20' E 004°18'1 2.3
2017-Sep-21 02:30N 51°20' E 004°20'0 0.4
2017-Sep-21 01:54N 51°20' E 004°20'0 0.0
2017-Sep-21 01:30N 51°20' E 004°20'0 0.0
2017-Sep-21 00:57N 51°20' E 004°20'0 0.0
2017-Sep-21 00:30N 51°20' E 004°20'0 0.0
2017-Sep-21 00:00N 51°20' E 004°20'0 0.0
2017-Sep-20 23:30N 51°20' E 004°20'0 0.0
2017-Sep-20 23:00N 51°20' E 004°20'0 0.0
2017-Sep-20 22:27N 51°20' E 004°20'0 0.0
2017-Sep-20 21:57N 51°20' E 004°20'0 0.0
2017-Sep-20 21:30N 51°20' E 004°20'0 0.0
2017-Sep-20 21:00N 51°20' E 004°20'0 0.0
2017-Sep-20 20:30N 51°20' E 004°20'0 0.0
2017-Sep-20 20:00N 51°20' E 004°20'0 0.0
2017-Sep-20 19:30N 51°20' E 004°20'0 0.0
2017-Sep-20 19:00N 51°20' E 004°20'0 0.0
2017-Sep-20 18:27N 51°20' E 004°20'0 0.0
2017-Sep-20 18:00N 51°20' E 004°20'0 0.0
2017-Sep-20 17:27N 51°20' E 004°20'0 0.0
2017-Sep-20 17:00N 51°20' E 004°20'0 0.0
2017-Sep-20 16:30N 51°20' E 004°20'0 0.0
2017-Sep-20 15:39N 51°20' E 004°20'0 0.0
2017-Sep-20 15:30N 51°20' E 004°20'0 0.0
2017-Sep-20 15:00N 51°20' E 004°20'0 0.0
2017-Sep-20 14:00N 51°20' E 004°20'0 0.0
2017-Sep-20 13:30N 51°20' E 004°20'0 0.0
2017-Sep-20 12:57N 51°20' E 004°20'0 0.0
2017-Sep-20 12:27N 51°20' E 004°20'0 0.0
2017-Sep-20 11:54N 51°20' E 004°20'0 0.0
2017-Sep-20 11:30N 51°20' E 004°20'0 0.0
2017-Sep-20 11:00N 51°20' E 004°20'0 0.0
2017-Sep-20 10:27N 51°20' E 004°20'0 0.0
2017-Sep-20 10:00N 51°20' E 004°20'0 0.0
2017-Sep-20 09:30N 51°20' E 004°20'0 0.0
2017-Sep-20 08:48N 51°20' E 004°20'0 0.0
2017-Sep-20 08:30N 51°20' E 004°20'0 0.0
2017-Sep-20 08:00N 51°20' E 004°20'0 0.0
2017-Sep-20 07:30N 51°20' E 004°20'0 0.0
2017-Sep-20 07:00N 51°20' E 004°20'0 0.0
2017-Sep-20 06:30N 51°20' E 004°20'0 0.0
2017-Sep-20 06:00N 51°20' E 004°20'0 0.0
2017-Sep-20 05:30N 51°20' E 004°20'0 0.0
2017-Sep-20 05:00N 51°20' E 004°20'0 0.0
2017-Sep-20 04:27N 51°20' E 004°20'0 0.0
2017-Sep-20 04:00N 51°20' E 004°20'0 0.0
2017-Sep-20 03:30N 51°20' E 004°20'0 0.0
2017-Sep-20 03:00N 51°20' E 004°20'0 0.0
2017-Sep-20 02:24N 51°20' E 004°20'0 0.0
2017-Sep-20 02:00N 51°20' E 004°20'0 0.0
2017-Sep-20 01:27N 51°20' E 004°20'0 0.0
2017-Sep-20 00:57N 51°20' E 004°20'0 0.0
2017-Sep-20 00:30N 51°20' E 004°20'0 0.0
2017-Sep-20 00:00N 51°20' E 004°20'0 0.0
2017-Sep-19 23:30N 51°20' E 004°20'0 0.0
2017-Sep-19 23:00N 51°20' E 004°20'0 0.0
2017-Sep-19 22:30N 51°20' E 004°20'0 0.0
2017-Sep-19 21:57N 51°20' E 004°20'0 0.0
2017-Sep-19 21:30N 51°20' E 004°20'0 0.0
2017-Sep-19 21:00N 51°20' E 004°20'0 0.0
2017-Sep-19 20:30N 51°20' E 004°20'0 0.0
2017-Sep-19 20:00N 51°20' E 004°20'0 0.0
2017-Sep-19 19:27N 51°20' E 004°20'0 0.0
2017-Sep-19 19:00N 51°20' E 004°20'0 0.0
2017-Sep-19 18:30N 51°20' E 004°20'0 0.0
2017-Sep-19 18:00N 51°20' E 004°20'0 0.0
2017-Sep-19 17:24N 51°20' E 004°20'0 0.0
2017-Sep-19 17:00N 51°20' E 004°20'0 0.0
2017-Sep-19 16:30N 51°20' E 004°20'0 0.0
2017-Sep-19 16:00N 51°20' E 004°20'0 0.0
2017-Sep-19 15:30N 51°20' E 004°20'0 0.0
2017-Sep-19 15:00N 51°20' E 004°20'0 0.0
2017-Sep-19 14:30N 51°20' E 004°20'0 0.0
2017-Sep-19 14:00N 51°20' E 004°20'0 0.0
2017-Sep-19 13:30N 51°20' E 004°20'0 0.0
2017-Sep-19 13:00N 51°20' E 004°20'0 0.0
2017-Sep-19 12:27N 51°20' E 004°20'0 0.0
2017-Sep-19 12:00N 51°20' E 004°20'0 0.0
2017-Sep-19 11:30N 51°20' E 004°20'0 0.0
2017-Sep-19 11:00N 51°20' E 004°20'0 0.0
2017-Sep-19 10:30N 51°20' E 004°20'0 0.0
2017-Sep-19 10:00N 51°20' E 004°20'0 0.0
2017-Sep-19 09:24N 51°20' E 004°20'0 0.0
2017-Sep-19 08:57N 51°20' E 004°20'0 0.0
2017-Sep-19 08:30N 51°20' E 004°20'0 0.0
2017-Sep-19 07:54N 51°20' E 004°20'0 0.0
2017-Sep-19 07:30N 51°20' E 004°20'0 0.0
2017-Sep-19 07:00N 51°20' E 004°20'0 0.0
2017-Sep-19 06:24N 51°20' E 004°20'0 0.0
2017-Sep-19 06:00N 51°20' E 004°20'0 0.0
2017-Sep-19 05:18N 51°20' E 004°20'0 0.0
2017-Sep-19 05:00N 51°20' E 004°20'0 0.0
2017-Sep-19 04:27N 51°20' E 004°20'0 0.0
2017-Sep-19 03:57N 51°20' E 004°20'0 0.0
2017-Sep-19 03:30N 51°20' E 004°20'0 0.0
2017-Sep-19 03:00N 51°20' E 004°20'0 0.0
2017-Sep-19 02:30N 51°20' E 004°20'0 0.0
2017-Sep-19 01:57N 51°20' E 004°20'0 0.0
2017-Sep-19 01:30N 51°20' E 004°20'0 0.0
2017-Sep-19 01:00N 51°20' E 004°20'0 0.0
2017-Sep-19 00:30N 51°20' E 004°20'0 0.0
2017-Sep-19 00:00N 51°20' E 004°20'0 0.0
2017-Sep-18 23:30N 51°20' E 004°20'0 0.0
2017-Sep-18 22:57N 51°20' E 004°20'0 0.0
2017-Sep-18 22:30N 51°20' E 004°20'0 0.0
2017-Sep-18 22:00N 51°20' E 004°20'0 0.0
2017-Sep-18 21:30N 51°20' E 004°20'0 0.0
2017-Sep-18 21:00N 51°20' E 004°20'0 0.0
2017-Sep-18 20:30N 51°20' E 004°20'0 0.0
2017-Sep-18 20:00N 51°20' E 004°20'0 0.0
2017-Sep-18 19:30N 51°20' E 004°20'0 0.0
2017-Sep-18 19:00N 51°20' E 004°20'0 0.0
2017-Sep-18 18:30N 51°20' E 004°20'0 0.0
2017-Sep-18 18:00N 51°20' E 004°20'0 0.0
2017-Sep-18 17:30N 51°20' E 004°20'0 0.0
2017-Sep-18 17:00N 51°20' E 004°20'0 0.0
2017-Sep-18 16:30N 51°20' E 004°20'0 0.0
2017-Sep-18 16:00N 51°20' E 004°20'0 0.0
2017-Sep-18 15:30N 51°20' E 004°20'0 0.0
2017-Sep-18 15:00N 51°20' E 004°20'0 0.0
2017-Sep-18 14:30N 51°20' E 004°20'0 0.0
2017-Sep-18 14:00N 51°20' E 004°20'0 0.0
2017-Sep-18 13:30N 51°20' E 004°20'0 0.0
2017-Sep-18 13:00N 51°20' E 004°20'0 0.0
2017-Sep-18 12:27N 51°20' E 004°20'0 0.0
2017-Sep-18 12:00N 51°20' E 004°20'0 0.0
2017-Sep-18 11:30N 51°20' E 004°20'2 3.4
2017-Sep-18 11:01N 51°20' E 004°18'1 1.3
2017-Sep-18 10:30N 51°21' E 004°17'0 0.0
2017-Sep-18 10:00N 51°21' E 004°17'0 0.0
2017-Sep-18 09:30N 51°21' E 004°17'1 1.3
2017-Sep-18 09:00N 51°20' E 004°16'3 5.4
2017-Sep-18 08:30N 51°18' E 004°16'1 1.2
2017-Sep-18 07:55N 51°17' E 004°15'0 0.0
2017-Sep-18 07:25N 51°17' E 004°15'0 0.0
2017-Sep-18 06:55N 51°17' E 004°15'0 0.0
2017-Sep-18 06:25N 51°17' E 004°15'0 0.0
2017-Sep-18 05:55N 51°17' E 004°15'0 0.1
2017-Sep-18 05:25N 51°17' E 004°15'0 0.0
2017-Sep-18 04:55N 51°17' E 004°15'0 0.0
2017-Sep-18 04:25N 51°17' E 004°15'0 0.0
2017-Sep-18 03:55N 51°17' E 004°15'0 0.0
2017-Sep-18 03:25N 51°17' E 004°15'0 0.0
2017-Sep-18 02:55N 51°17' E 004°15'0 0.0
2017-Sep-18 02:25N 51°17' E 004°15'0 0.0
2017-Sep-18 01:55N 51°17' E 004°15'0 0.0
2017-Sep-18 01:25N 51°17' E 004°15'0 0.0
2017-Sep-18 00:55N 51°17' E 004°15'0 0.0
2017-Sep-18 00:25N 51°17' E 004°15'0 0.0
2017-Sep-17 23:55N 51°17' E 004°15'0 0.0
2017-Sep-17 23:25N 51°17' E 004°15'0 0.0
2017-Sep-17 22:55N 51°17' E 004°15'0 0.0
2017-Sep-17 22:25N 51°17' E 004°15'0 0.0
2017-Sep-17 21:55N 51°17' E 004°15'0 0.0
2017-Sep-17 21:25N 51°17' E 004°15'0 0.0
2017-Sep-17 20:55N 51°17' E 004°15'0 0.0
2017-Sep-17 20:25N 51°17' E 004°15'0 0.0
2017-Sep-17 19:55N 51°17' E 004°15'0 0.0
2017-Sep-17 19:25N 51°17' E 004°15'0 0.0
2017-Sep-17 18:55N 51°17' E 004°15'0 0.0
2017-Sep-17 18:19N 51°17' E 004°15'0 0.0
2017-Sep-17 17:55N 51°17' E 004°15'0 0.1
2017-Sep-17 17:25N 51°17' E 004°15'0 0.0
2017-Sep-17 16:55N 51°17' E 004°15'0 0.0
2017-Sep-17 16:25N 51°17' E 004°15'0 0.0
2017-Sep-17 15:55N 51°17' E 004°15'0 0.0
2017-Sep-17 15:25N 51°17' E 004°15'0 0.0
2017-Sep-17 14:49N 51°17' E 004°15'0 0.0
2017-Sep-17 14:25N 51°17' E 004°15'0 0.0
2017-Sep-17 13:55N 51°17' E 004°15'0 0.0
2017-Sep-17 13:25N 51°17' E 004°15'0 0.0
2017-Sep-17 12:55N 51°17' E 004°15'0 0.0
2017-Sep-17 12:25N 51°17' E 004°15'0 0.1
2017-Sep-17 12:00N 51°17' E 004°15'1 2.4
2017-Sep-17 11:30N 51°18' E 004°16'2 4.6
2017-Sep-17 11:00N 51°20' E 004°16'5 9.5
2017-Sep-17 10:30N 51°23' E 004°10'510.5
2017-Sep-17 10:01N 51°24' E 004°02'3 6.8
2017-Sep-17 09:30N 51°23' E 003°57'612.7
2017-Sep-17 09:01N 51°21' E 003°47'612.1
2017-Sep-17 08:30N 51°26' E 003°41'510.5
2017-Sep-17 08:01N 51°25' E 003°33'713.1
2017-Sep-17 07:31N 51°24' E 003°22'612.3
2017-Sep-17 07:01N 51°24' E 003°12'611.9
2017-Sep-17 06:31N 51°24' E 003°03'4 8.8
2017-Sep-17 06:01N 51°29' E 003°01'713.2
2017-Sep-17 05:31N 51°34' E 003°09'612.6
2017-Sep-17 05:00N 51°40' E 003°12'510.6
2017-Sep-17 04:30N 51°45' E 003°14'3 5.9
2017-Sep-17 04:00N 51°48' E 003°16'3 5.2
2017-Sep-17 03:30N 51°50' E 003°17'3 5.7
2017-Sep-17 02:57N 51°53' E 003°17'3 5.0
2017-Sep-17 02:20N 51°56' E 003°18'2 4.7
2017-Sep-17 01:59N 51°58' E 003°19'3 6.0
2017-Sep-17 01:29N 52°01' E 003°20'12 7.3
2017-Sep-16 23:54N 52°03' E 003°38'411.2
2017-Sep-16 23:30N 52°03' E 003°45'5 9.9
2017-Sep-16 23:01N 52°03' E 003°53'4 7.2
2017-Sep-16 22:31N 52°01' E 003°59'510.2
2017-Sep-16 22:01N 51°58' E 004°05'1 2.2
2017-Sep-16 21:31N 51°58' E 004°04'0 0.0
2017-Sep-16 20:59N 51°58' E 004°04'0 0.0
2017-Sep-16 20:29N 51°58' E 004°04'0 0.0
2017-Sep-16 19:56N 51°58' E 004°04'0 0.0
2017-Sep-16 19:29N 51°58' E 004°04'0 0.0
2017-Sep-16 18:59N 51°58' E 004°04'0 0.0
2017-Sep-16 18:29N 51°58' E 004°04'0 0.0
2017-Sep-16 17:59N 51°58' E 004°04'0 0.0
2017-Sep-16 17:29N 51°58' E 004°04'0 0.0
2017-Sep-16 16:59N 51°58' E 004°04'0 0.0
2017-Sep-16 16:29N 51°58' E 004°04'0 0.0
2017-Sep-16 15:59N 51°58' E 004°04'0 0.0
2017-Sep-16 15:29N 51°58' E 004°04'0 0.0
2017-Sep-16 14:59N 51°58' E 004°04'0 0.0
2017-Sep-16 14:29N 51°58' E 004°04'0 0.0
2017-Sep-16 13:59N 51°58' E 004°04'0 0.0
2017-Sep-16 13:29N 51°58' E 004°04'0 0.0
2017-Sep-16 12:59N 51°58' E 004°04'0 0.0
2017-Sep-16 12:29N 51°58' E 004°04'0 0.0
2017-Sep-16 11:59N 51°58' E 004°04'0 0.0
2017-Sep-16 11:29N 51°58' E 004°04'0 0.0
2017-Sep-16 10:59N 51°58' E 004°04'0 0.0
2017-Sep-16 10:29N 51°58' E 004°04'0 0.0
2017-Sep-16 09:59N 51°58' E 004°04'0 0.0
2017-Sep-16 09:29N 51°58' E 004°04'0 0.0
2017-Sep-16 08:59N 51°58' E 004°04'0 0.0
2017-Sep-16 08:29N 51°58' E 004°04'0 0.0
2017-Sep-16 08:00N 51°58' E 004°04'1 2.4
2017-Sep-16 07:30N 51°59' E 004°05'3 5.4
2017-Sep-16 07:00N 52°00' E 004°01'5 9.9
2017-Sep-16 06:30N 51°60' E 003°53'4 8.2
2017-Sep-16 06:00N 51°59' E 003°47'3 5.5
2017-Sep-16 05:30N 51°58' E 003°43'3 6.9
2017-Sep-16 05:00N 51°57' E 003°37'3 6.7
2017-Sep-16 04:30N 51°56' E 003°32'3 6.9
2017-Sep-16 04:00N 51°55' E 003°27'3 6.7
2017-Sep-16 03:30N 51°54' E 003°22'1110.5
2017-Sep-16 02:26N 51°51' E 003°04'1411.7
2017-Sep-16 01:12N 51°48' E 002°42'311.9
2017-Sep-16 00:58N 51°49' E 002°37'611.9
2017-Sep-16 00:28N 51°51' E 002°28'812.1
2017-Sep-15 23:50N 51°52' E 002°16'412.4
2017-Sep-15 23:30N 51°53' E 002°09'612.7
2017-Sep-15 23:00N 51°50' E 001°60'612.3
2017-Sep-15 22:30N 51°48' E 001°51'612.5
2017-Sep-15 22:00N 51°51' E 001°41'4 7.9
2017-Sep-15 21:30N 51°50' E 001°35'611.6
2017-Sep-15 21:00N 51°45' E 001°31'612.5
2017-Sep-15 20:30N 51°40' E 001°25'612.2
2017-Sep-15 20:00N 51°36' E 001°18'611.2
2017-Sep-15 19:30N 51°33' E 001°10'510.8
2017-Sep-15 19:00N 51°30' E 001°03'510.0
2017-Sep-15 18:29N 51°29' E 000°55'  

Dump ship's entire track history